createdAt,value
2023-03-05T00:00:32.587Z,0.55
2023-03-05T00:04:32.616Z,0.55
2023-03-05T00:08:32.677Z,0.55
2023-03-05T00:12:32.679Z,0.56
2023-03-05T00:16:32.718Z,0.55
2023-03-05T00:20:32.758Z,0.55
2023-03-05T00:24:32.861Z,0.55
2023-03-05T00:28:32.917Z,0.54
2023-03-05T00:32:33.002Z,0.56
2023-03-05T00:36:33.020Z,0.55
2023-03-05T00:40:33.188Z,0.55
2023-03-05T00:44:33.161Z,0.55
2023-03-05T00:48:33.218Z,0.55
2023-03-05T00:52:33.310Z,0.55
2023-03-05T00:56:33.343Z,0.55
2023-03-05T01:00:33.440Z,0.55
2023-03-05T01:04:33.464Z,0.54
2023-03-05T01:08:33.547Z,0.55
2023-03-05T01:12:33.622Z,0.54
2023-03-05T01:16:33.782Z,0.55
2023-03-05T01:20:33.826Z,0.55
2023-03-05T01:24:33.944Z,0.55
2023-03-05T01:28:34.007Z,0.55
2023-03-05T01:32:35.451Z,0.55
2023-03-05T01:36:34.168Z,0.54
2023-03-05T01:40:34.259Z,0.54
2023-03-05T01:44:34.385Z,0.55
2023-03-05T01:48:34.443Z,0.54
2023-03-05T01:52:34.582Z,0.55
2023-03-05T01:56:34.741Z,0.54
2023-03-05T02:00:34.842Z,0.54
2023-03-05T02:04:34.960Z,0.55
2023-03-05T02:08:35.023Z,0.55
2023-03-05T02:12:35.125Z,0.54
2023-03-05T02:16:35.311Z,0.54
2023-03-05T02:20:35.465Z,0.54
2023-03-05T02:24:35.496Z,0.54
2023-03-05T02:28:35.572Z,0.54
2023-03-05T02:32:35.743Z,0.55
2023-03-05T02:36:35.806Z,0.55
2023-03-05T02:40:35.948Z,0.54
2023-03-05T02:44:36.052Z,0.54
2023-03-05T02:48:36.217Z,0.54
2023-03-05T02:52:36.346Z,0.54
2023-03-05T02:56:36.423Z,0.54
2023-03-05T03:00:36.443Z,0.54
2023-03-05T03:04:36.506Z,0.53
2023-03-05T03:08:36.554Z,0.53
2023-03-05T03:12:36.632Z,0.54
2023-03-05T03:16:36.714Z,0.55
2023-03-05T03:20:36.758Z,0.54
2023-03-05T03:24:36.916Z,0.54
2023-03-05T03:28:37.072Z,0.53
2023-03-05T03:32:37.324Z,0.54
2023-03-05T03:36:37.395Z,0.54
2023-03-05T03:40:37.586Z,0.54
2023-03-05T03:44:37.720Z,0.54
2023-03-05T03:48:37.885Z,0.53
2023-03-05T03:52:38.027Z,0.54
2023-03-05T03:56:38.208Z,0.54
2023-03-05T04:00:38.338Z,0.53
2023-03-05T04:04:38.577Z,0.53
2023-03-05T04:08:38.702Z,0.53
2023-03-05T04:12:38.884Z,0.53
2023-03-05T04:16:39.077Z,0.53
2023-03-05T04:20:39.246Z,0.53
2023-03-05T04:24:39.446Z,0.53
2023-03-05T04:28:39.639Z,0.53
2023-03-05T04:32:39.875Z,0.53
2023-03-05T04:36:40.026Z,0.53
2023-03-05T04:40:40.244Z,0.53
2023-03-05T04:44:40.378Z,0.53
2023-03-05T04:48:40.570Z,0.53
2023-03-05T04:52:40.789Z,0.54
2023-03-05T04:56:40.953Z,0.53
2023-03-05T05:00:41.099Z,0.54
2023-03-05T05:04:41.314Z,0.54
2023-03-05T05:08:41.495Z,0.53
2023-03-05T05:12:41.698Z,0.53
2023-03-05T05:16:41.881Z,0.54
2023-03-05T05:20:42.081Z,0.53
2023-03-05T05:24:42.318Z,0.53
2023-03-05T05:28:42.508Z,0.53
2023-03-05T05:32:42.902Z,0.53
2023-03-05T05:36:42.665Z,0.53
2023-03-05T05:40:42.654Z,0.53
2023-03-05T05:44:42.606Z,0.53
2023-03-05T05:48:42.581Z,0.53
2023-03-05T05:52:42.557Z,0.53
2023-03-05T05:56:42.489Z,0.53
2023-03-05T06:00:42.449Z,0.53
2023-03-05T06:04:42.460Z,0.53
2023-03-05T06:08:42.370Z,0.54
2023-03-05T06:12:42.397Z,0.53
2023-03-05T06:16:42.526Z,0.53
2023-03-05T06:20:42.435Z,0.53
2023-03-05T06:24:42.384Z,0.53
2023-03-05T06:28:42.351Z,0.53
2023-03-05T06:32:42.297Z,0.53
2023-03-05T06:36:42.286Z,0.52
2023-03-05T06:40:42.258Z,0.52
2023-03-05T06:44:42.186Z,0.53
2023-03-05T06:48:42.158Z,0.52
2023-03-05T06:52:42.136Z,0.53
2023-03-05T06:56:42.093Z,0.53
2023-03-05T07:00:42.295Z,0.53
2023-03-05T07:04:42.233Z,0.53
2023-03-05T07:08:42.194Z,0.53
2023-03-05T07:12:43.573Z,0.53
2023-03-05T07:16:42.121Z,0.54
2023-03-05T07:20:42.086Z,0.54
2023-03-05T07:24:42.043Z,0.53
2023-03-05T07:28:42.085Z,0.52
2023-03-05T07:32:42.323Z,0.52
2023-03-05T07:36:42.570Z,0.53
2023-03-05T07:40:42.712Z,0.53
2023-03-05T07:44:42.931Z,0.53
2023-03-05T07:48:43.080Z,0.53
2023-03-05T07:52:43.265Z,0.53
2023-03-05T07:56:43.441Z,0.54
2023-03-05T08:00:43.591Z,0.54
2023-03-05T08:04:43.723Z,0.54
2023-03-05T08:08:43.903Z,0.54
2023-03-05T08:12:44.036Z,0.54
2023-03-05T08:16:45.733Z,0.54
2023-03-05T08:20:44.072Z,0.55
2023-03-05T08:24:44.030Z,0.55
2023-03-05T08:28:43.961Z,0.56
2023-03-05T08:32:43.923Z,0.55
2023-03-05T08:36:43.900Z,0.55
2023-03-05T08:40:43.863Z,0.55
2023-03-05T08:44:43.829Z,0.55
2023-03-05T08:48:43.784Z,0.54
2023-03-05T08:52:43.812Z,0.53
2023-03-05T08:56:43.740Z,0.55
2023-03-05T09:00:43.679Z,0.52
2023-03-05T09:04:43.656Z,0.52
2023-03-05T09:08:43.596Z,0.51
2023-03-05T09:12:43.595Z,0.51
2023-03-05T09:16:43.615Z,0.55
2023-03-05T09:20:43.502Z,0.53
2023-03-05T09:24:43.491Z,0.52
2023-03-05T09:28:43.507Z,0.53
2023-03-05T09:32:43.688Z,0.54
2023-03-05T09:36:43.730Z,0.53
2023-03-05T09:40:43.833Z,0.53
2023-03-05T09:44:43.898Z,0.55
2023-03-05T09:48:43.912Z,0.54
2023-03-05T09:52:43.944Z,0.55
2023-03-05T09:56:43.938Z,0.54
2023-03-05T10:00:43.939Z,0.55
2023-03-05T10:04:43.955Z,0.55
2023-03-05T10:08:43.983Z,0.55
2023-03-05T10:12:44.009Z,0.55
2023-03-05T10:16:44.166Z,0.54
2023-03-05T10:20:44.245Z,0.55
2023-03-05T10:24:44.330Z,0.55
2023-03-05T10:28:44.563Z,0.55
2023-03-05T10:32:44.786Z,0.54
2023-03-05T10:36:44.688Z,0.56
2023-03-05T10:40:44.660Z,0.55
2023-03-05T10:44:44.648Z,0.57
2023-03-05T10:48:44.615Z,0.56
2023-03-05T10:52:44.582Z,0.56
2023-03-05T10:56:44.547Z,0.55
2023-03-05T11:00:44.567Z,0.54
2023-03-05T11:04:44.466Z,0.56
2023-03-05T11:08:44.458Z,0.55
2023-03-05T11:12:44.393Z,0.56
2023-03-05T11:16:44.338Z,0.55
2023-03-05T11:20:44.323Z,0.56
2023-03-05T11:24:44.284Z,0.55
2023-03-05T11:28:44.240Z,0.56
2023-03-05T11:32:44.189Z,0.55
2023-03-05T11:36:44.211Z,0.56
2023-03-05T11:40:44.186Z,0.55
2023-03-05T11:44:44.372Z,0.56
2023-03-05T11:48:44.591Z,0.56
2023-03-05T11:52:44.556Z,0.56
2023-03-05T11:56:44.510Z,0.56
2023-03-05T12:00:44.491Z,0.57
2023-03-05T12:04:44.466Z,0.56
2023-03-05T12:08:44.998Z,0.56
2023-03-05T12:12:44.647Z,0.56
2023-03-05T12:16:44.342Z,0.56
2023-03-05T12:20:44.417Z,0.55
2023-03-05T12:24:44.263Z,0.55
2023-03-05T12:28:44.386Z,0.55
2023-03-05T12:32:44.322Z,0.55
2023-03-05T12:36:44.121Z,0.55
2023-03-05T12:40:44.122Z,0.55
2023-03-05T12:44:44.255Z,0.54
2023-03-05T12:48:44.354Z,0.55
2023-03-05T12:52:44.442Z,0.54
2023-03-05T12:56:44.616Z,0.54
2023-03-05T13:00:44.672Z,0.53
2023-03-05T13:04:44.755Z,0.54
2023-03-05T13:08:44.850Z,0.53
2023-03-05T13:12:44.951Z,0.53
2023-03-05T13:16:45.125Z,0.53
2023-03-05T13:20:45.887Z,0.53
2023-03-05T13:24:45.235Z,0.52
2023-03-05T13:28:45.348Z,0.53
2023-03-05T13:32:45.388Z,0.52
2023-03-05T13:36:45.453Z,0.51
2023-03-05T13:40:45.497Z,0.52
2023-03-05T13:44:45.564Z,0.51
2023-03-05T13:48:45.691Z,0.52
2023-03-05T13:52:45.720Z,0.52
2023-03-05T13:56:45.708Z,0.51
2023-03-05T14:00:45.885Z,0.51
2023-03-05T14:04:45.957Z,0.51
2023-03-05T14:08:46.015Z,0.52
2023-03-05T14:12:46.153Z,0.51
2023-03-05T14:16:46.284Z,0.52
2023-03-05T14:20:46.357Z,0.50
2023-03-05T14:24:46.469Z,0.51
2023-03-05T14:28:46.657Z,0.52
2023-03-05T14:32:46.782Z,0.51
2023-03-05T14:36:46.902Z,0.51
2023-03-05T14:40:47.055Z,0.52
2023-03-05T14:44:47.242Z,0.51
2023-03-05T14:48:47.352Z,0.51
2023-03-05T14:52:47.546Z,0.50
2023-03-05T14:56:47.797Z,0.51
2023-03-05T15:00:50.667Z,0.50
2023-03-05T15:04:47.942Z,0.51
2023-03-05T15:08:47.901Z,0.51
2023-03-05T15:12:47.878Z,0.51
2023-03-05T15:16:47.856Z,0.51
2023-03-05T15:20:47.810Z,0.51
2023-03-05T15:24:47.771Z,0.51
2023-03-05T15:28:47.750Z,0.51
2023-03-05T15:32:47.711Z,0.51
2023-03-05T15:36:47.672Z,0.51
2023-03-05T15:40:47.612Z,0.51
2023-03-05T15:44:47.600Z,0.51
2023-03-05T15:48:47.566Z,0.51
2023-03-05T15:52:47.535Z,0.50
2023-03-05T15:56:47.483Z,0.51
2023-03-05T16:00:47.562Z,0.50
2023-03-05T16:04:47.437Z,0.52
2023-03-05T16:08:47.425Z,0.51
2023-03-05T16:12:47.341Z,0.51
2023-03-05T16:16:47.321Z,0.51
2023-03-05T16:20:47.349Z,0.51
2023-03-05T16:24:47.472Z,0.50
2023-03-05T16:28:47.625Z,0.51
2023-03-05T16:32:47.782Z,0.51
2023-03-05T16:36:47.980Z,0.52
2023-03-05T16:41:08.240Z,0.50
2023-03-05T16:44:49.132Z,0.51
2023-03-05T16:48:48.089Z,0.51
2023-03-05T16:52:48.091Z,0.50
2023-03-05T16:56:48.277Z,0.51
2023-03-05T17:00:48.581Z,0.51
2023-03-05T17:04:48.515Z,0.51
2023-03-05T17:08:48.471Z,0.51
2023-03-05T17:12:48.436Z,0.51
2023-03-05T17:16:48.410Z,0.51
2023-03-05T17:20:48.352Z,0.52
2023-03-05T17:24:48.316Z,0.51
2023-03-05T17:28:48.306Z,0.51
2023-03-05T17:32:48.256Z,0.52
2023-03-05T17:36:48.215Z,0.51
2023-03-05T17:40:48.207Z,0.50
2023-03-05T17:48:48.193Z,0.51
2023-03-05T17:52:48.177Z,0.52
2023-03-05T17:56:48.239Z,0.50
2023-03-05T18:00:48.342Z,0.51
2023-03-05T18:04:48.395Z,0.51
2023-03-05T18:08:48.512Z,0.52
2023-03-05T18:12:48.593Z,0.52
2023-03-05T18:16:48.710Z,0.51
2023-03-05T18:20:48.838Z,0.52
2023-03-05T18:24:48.840Z,0.52
2023-03-05T18:28:48.969Z,0.52
2023-03-05T18:32:49.035Z,0.52
2023-03-05T18:36:49.077Z,0.51
2023-03-05T18:40:49.148Z,0.52
2023-03-05T18:44:49.156Z,0.52
2023-03-05T18:48:49.136Z,0.51
2023-03-05T18:52:49.153Z,0.51
2023-03-05T18:56:49.145Z,0.52
2023-03-05T19:00:49.135Z,0.51
2023-03-05T19:04:49.104Z,0.50
2023-03-05T19:08:49.108Z,0.52
2023-03-05T19:12:49.113Z,0.51
2023-03-05T19:16:49.126Z,0.53
2023-03-05T19:20:49.106Z,0.52
2023-03-05T19:24:49.086Z,0.51
2023-03-05T19:28:49.086Z,0.51
2023-03-05T19:32:49.102Z,0.51
2023-03-05T19:36:49.116Z,0.52
2023-03-05T19:40:49.146Z,0.52
2023-03-05T19:44:49.146Z,0.52
2023-03-05T19:48:49.184Z,0.52
2023-03-05T19:52:49.214Z,0.51
2023-03-05T19:56:49.287Z,0.52
2023-03-05T20:00:49.324Z,0.52
2023-03-05T20:04:49.546Z,0.51
2023-03-05T20:08:49.552Z,0.52
2023-03-05T20:12:49.542Z,0.52
2023-03-05T20:16:49.656Z,0.51
2023-03-05T20:20:49.752Z,0.52
2023-03-05T20:24:49.800Z,0.52
2023-03-05T20:28:49.956Z,0.51
2023-03-05T20:32:50.042Z,0.52
2023-03-05T20:36:50.102Z,0.52
2023-03-05T20:40:50.251Z,0.52
2023-03-05T20:44:50.376Z,0.52
2023-03-05T20:48:50.497Z,0.52
2023-03-05T20:52:50.659Z,0.53
2023-03-05T20:56:50.801Z,0.52
2023-03-05T21:00:50.919Z,0.52
2023-03-05T21:04:51.042Z,0.52
2023-03-05T21:08:51.213Z,0.53
2023-03-05T21:12:51.358Z,0.53
2023-03-05T21:16:51.484Z,0.52
2023-03-05T21:20:51.644Z,0.53
2023-03-05T21:24:51.811Z,0.52
2023-03-05T21:28:51.928Z,0.52
2023-03-05T21:32:52.148Z,0.53
2023-03-05T21:36:53.093Z,0.54
2023-03-05T21:40:52.450Z,0.52
2023-03-05T21:44:52.627Z,0.50
2023-03-05T21:48:52.778Z,0.52
2023-03-05T21:52:52.994Z,0.52
2023-03-05T21:56:53.177Z,0.54
2023-03-05T22:00:53.371Z,0.53
2023-03-05T22:04:53.536Z,0.54
2023-03-05T22:08:53.740Z,0.53
2023-03-05T22:12:53.913Z,0.52
2023-03-05T22:16:54.140Z,0.52
2023-03-05T22:20:54.294Z,0.53
2023-03-05T22:24:54.481Z,0.52
2023-03-05T22:28:54.668Z,0.52
2023-03-05T22:32:54.845Z,0.52
2023-03-05T22:36:55.089Z,0.55
2023-03-05T22:40:55.266Z,0.55
2023-03-05T22:44:55.468Z,0.56
2023-03-05T22:48:55.757Z,0.53
2023-03-05T22:52:55.916Z,0.53
2023-03-05T22:56:56.147Z,0.55
2023-03-05T23:00:56.341Z,0.54
2023-03-05T23:04:56.303Z,0.56
2023-03-05T23:08:56.268Z,0.54
2023-03-05T23:12:56.252Z,0.54
2023-03-05T23:16:56.182Z,0.55
2023-03-05T23:20:56.138Z,0.54
2023-03-05T23:24:56.159Z,0.54
2023-03-05T23:28:56.081Z,0.54
2023-03-05T23:32:56.046Z,0.54
2023-03-05T23:36:56.009Z,0.55
2023-03-05T23:40:55.981Z,0.54
2023-03-05T23:44:55.951Z,0.54
2023-03-05T23:48:55.924Z,0.57
2023-03-05T23:52:55.878Z,0.54
2023-03-05T23:56:55.823Z,0.51
